Portada
METAR-TAF:

METAR-TAF

Aeropuertos :

Aeropuerto Internacional de El Salvador

El Salvador, El Salvador

latitud: 13-26N, longitud: 089-03W, altitud: 25 m

Observación

El informe se hizo hace 1 hora y 4 minutos, a las 00:50 UTC
Viento 2 kt con dirección variable
Temperatura 25°C
Humedad 79%
Presión 1014 hPa
Visibilidad 10 km o más
sin nubes por debajo de 1500 m y sin presencia de cumulonimbus.

METAR: MSLP 070050Z VRB02KT CAVOK 25/21 Q1013 A2993 NOSIG

Hora: 19:54 (01:54 UTC)

Pronóstico

El informe se hizo hace 4 horas y 29 minutos, a las 21:25 UTC
Pronóstico válido del 07 a las 00 UTC al 07 a las 24 UTC
Viento 10 kt del norte-noreste
Visibilidad 10 km o más
Escasas nubes a una altura de 6000 ft
Evolucionando progresivamente
del 07 a las 19 UTC al 07 a las 20 UTC
Viento 12 kt del sur-suroeste

TAF: MSLP 062125Z 0700/0724 03010KT 9999 FEW060 TX33/0718Z TN21/0712Z BECMG 0719/0720 21012KT

Observaciones y pronósticos meteorológicos de más de 4000 aeropuertos (mensajes METAR y TAF).

Los puntos amarillos y rojos representan las estaciones disponibles.

Ponga el ratón en el punto deseado para ver el nombre de la estación.

Haga clic para ver las observaciones y los pronósticos meteorológicos.

Para cambiar el mapa : haga clic en los botones verdes con una cruz de color negro para hacer un zoom, en el botón verde con un guión para alejar o en las flechas verdes para mapas adyacentes.


METAR-TAF: